sensor_id;sensor_type;location;lat;lon;timestamp;temperature;humidity
14097;DHT22;7125;48.106;11.544;2023-10-13T00:00:27;17.10;93.70
14097;DHT22;7125;48.106;11.544;2023-10-13T00:02:56;17.10;93.90
14097;DHT22;7125;48.106;11.544;2023-10-13T00:05:27;17.00;94.10
14097;DHT22;7125;48.106;11.544;2023-10-13T00:07:56;16.90;94.30
14097;DHT22;7125;48.106;11.544;2023-10-13T00:10:27;16.90;94.50
14097;DHT22;7125;48.106;11.544;2023-10-13T00:12:54;16.80;94.70
14097;DHT22;7125;48.106;11.544;2023-10-13T00:15:32;16.80;94.80
14097;DHT22;7125;48.106;11.544;2023-10-13T00:18:05;16.70;94.90
14097;DHT22;7125;48.106;11.544;2023-10-13T00:20:41;16.60;95.00
14097;DHT22;7125;48.106;11.544;2023-10-13T00:23:14;16.60;95.10
14097;DHT22;7125;48.106;11.544;2023-10-13T00:25:47;16.50;95.10
14097;DHT22;7125;48.106;11.544;2023-10-13T00:28:23;16.50;95.20
14097;DHT22;7125;48.106;11.544;2023-10-13T00:30:55;16.40;95.00
14097;DHT22;7125;48.106;11.544;2023-10-13T00:33:30;16.50;93.60
14097;DHT22;7125;48.106;11.544;2023-10-13T00:35:58;16.50;94.00
14097;DHT22;7125;48.106;11.544;2023-10-13T00:38:26;16.50;94.10
14097;DHT22;7125;48.106;11.544;2023-10-13T00:40:53;16.50;94.50
14097;DHT22;7125;48.106;11.544;2023-10-13T00:43:23;16.50;94.60
14097;DHT22;7125;48.106;11.544;2023-10-13T00:46:01;16.50;94.50
14097;DHT22;7125;48.106;11.544;2023-10-13T00:48:40;16.50;94.60
14097;DHT22;7125;48.106;11.544;2023-10-13T00:51:12;16.50;94.70
14097;DHT22;7125;48.106;11.544;2023-10-13T00:53:48;16.50;94.50
14097;DHT22;7125;48.106;11.544;2023-10-13T00:56:15;16.50;94.60
14097;DHT22;7125;48.106;11.544;2023-10-13T00:58:49;16.50;94.50
14097;DHT22;7125;48.106;11.544;2023-10-13T01:01:19;16.50;94.80
14097;DHT22;7125;48.106;11.544;2023-10-13T01:03:49;16.50;94.90
14097;DHT22;7125;48.106;11.544;2023-10-13T01:06:17;16.40;95.00
14097;DHT22;7125;48.106;11.544;2023-10-13T01:08:46;16.40;95.10
14097;DHT22;7125;48.106;11.544;2023-10-13T01:11:19;16.30;95.30
14097;DHT22;7125;48.106;11.544;2023-10-13T01:13:49;16.30;95.60
14097;DHT22;7125;48.106;11.544;2023-10-13T01:16:18;16.20;95.70
14097;DHT22;7125;48.106;11.544;2023-10-13T01:18:49;16.10;95.70
14097;DHT22;7125;48.106;11.544;2023-10-13T01:21:16;16.10;96.00
14097;DHT22;7125;48.106;11.544;2023-10-13T01:23:48;16.00;96.30
14097;DHT22;7125;48.106;11.544;2023-10-13T01:26:16;16.00;96.20
14097;DHT22;7125;48.106;11.544;2023-10-13T01:28:50;15.90;96.30
14097;DHT22;7125;48.106;11.544;2023-10-13T01:31:17;15.80;96.60
14097;DHT22;7125;48.106;11.544;2023-10-13T01:33:54;15.80;96.70
14097;DHT22;7125;48.106;11.544;2023-10-13T01:36:21;15.70;96.80
14097;DHT22;7125;48.106;11.544;2023-10-13T01:38:51;15.60;96.90
14097;DHT22;7125;48.106;11.544;2023-10-13T01:41:19;15.60;97.10
14097;DHT22;7125;48.106;11.544;2023-10-13T01:43:48;15.50;97.30
14097;DHT22;7125;48.106;11.544;2023-10-13T01:46:15;15.40;97.70
14097;DHT22;7125;48.106;11.544;2023-10-13T01:48:45;15.40;97.60
14097;DHT22;7125;48.106;11.544;2023-10-13T01:51:12;15.30;97.60
14097;DHT22;7125;48.106;11.544;2023-10-13T01:53:40;15.30;97.70
14097;DHT22;7125;48.106;11.544;2023-10-13T01:56:08;15.20;98.20
14097;DHT22;7125;48.106;11.544;2023-10-13T01:58:40;15.10;98.00
14097;DHT22;7125;48.106;11.544;2023-10-13T02:01:13;15.10;98.10
14097;DHT22;7125;48.106;11.544;2023-10-13T02:03:46;15.00;98.30
14097;DHT22;7125;48.106;11.544;2023-10-13T02:06:14;14.90;98.30
14097;DHT22;7125;48.106;11.544;2023-10-13T02:08:44;14.90;98.50
14097;DHT22;7125;48.106;11.544;2023-10-13T02:11:14;14.80;98.50
14097;DHT22;7125;48.106;11.544;2023-10-13T02:13:44;14.80;98.50
14097;DHT22;7125;48.106;11.544;2023-10-13T02:16:16;14.80;98.30
14097;DHT22;7125;48.106;11.544;2023-10-13T02:18:47;14.70;98.30
14097;DHT22;7125;48.106;11.544;2023-10-13T02:21:17;14.70;98.40
14097;DHT22;7125;48.106;11.544;2023-10-13T02:23:44;14.60;98.60
14097;DHT22;7125;48.106;11.544;2023-10-13T02:26:11;14.60;98.70
14097;DHT22;7125;48.106;11.544;2023-10-13T02:28:42;14.50;98.70
14097;DHT22;7125;48.106;11.544;2023-10-13T02:31:09;14.50;98.80
14097;DHT22;7125;48.106;11.544;2023-10-13T02:33:37;14.50;98.90
14097;DHT22;7125;48.106;11.544;2023-10-13T02:36:10;14.40;98.90
14097;DHT22;7125;48.106;11.544;2023-10-13T02:38:38;14.40;99.30
14097;DHT22;7125;48.106;11.544;2023-10-13T02:41:12;14.30;99.00
14097;DHT22;7125;48.106;11.544;2023-10-13T02:43:46;14.30;99.20
14097;DHT22;7125;48.106;11.544;2023-10-13T02:46:12;14.20;99.20
14097;DHT22;7125;48.106;11.544;2023-10-13T02:48:42;14.10;99.30
14097;DHT22;7125;48.106;11.544;2023-10-13T02:51:12;14.10;99.30
14097;DHT22;7125;48.106;11.544;2023-10-13T02:53:43;14.00;99.40
14097;DHT22;7125;48.106;11.544;2023-10-13T02:56:12;13.90;99.30
14097;DHT22;7125;48.106;11.544;2023-10-13T02:58:40;13.90;99.70
14097;DHT22;7125;48.106;11.544;2023-10-13T03:01:11;13.90;99.80
14097;DHT22;7125;48.106;11.544;2023-10-13T03:03:45;13.80;99.80
14097;DHT22;7125;48.106;11.544;2023-10-13T03:06:17;13.80;99.80
14097;DHT22;7125;48.106;11.544;2023-10-13T03:08:47;13.70;99.90
14097;DHT22;7125;48.106;11.544;2023-10-13T03:11:14;13.70;99.90
14097;DHT22;7125;48.106;11.544;2023-10-13T03:13:47;13.60;99.90
14097;DHT22;7125;48.106;11.544;2023-10-13T03:16:15;13.50;99.90
14097;DHT22;7125;48.106;11.544;2023-10-13T03:18:43;13.50;99.90
14097;DHT22;7125;48.106;11.544;2023-10-13T03:21:22;13.40;99.90
14097;DHT22;7125;48.106;11.544;2023-10-13T03:23:56;13.40;99.90
14097;DHT22;7125;48.106;11.544;2023-10-13T03:26:31;13.30;99.90
14097;DHT22;7125;48.106;11.544;2023-10-13T03:29:03;13.30;99.90
14097;DHT22;7125;48.106;11.544;2023-10-13T03:31:31;13.30;99.90
14097;DHT22;7125;48.106;11.544;2023-10-13T03:34:04;13.20;99.90
14097;DHT22;7125;48.106;11.544;2023-10-13T03:36:37;13.20;99.90
14097;DHT22;7125;48.106;11.544;2023-10-13T03:39:24;13.10;99.90
14097;DHT22;7125;48.106;11.544;2023-10-13T03:41:57;13.10;99.90
14097;DHT22;7125;48.106;11.544;2023-10-13T03:44:25;13.10;99.90
14097;DHT22;7125;48.106;11.544;2023-10-13T03:46:57;13.00;99.90
14097;DHT22;7125;48.106;11.544;2023-10-13T03:49:34;13.00;99.90
14097;DHT22;7125;48.106;11.544;2023-10-13T03:52:04;13.00;99.90
14097;DHT22;7125;48.106;11.544;2023-10-13T03:54:31;13.00;99.90
14097;DHT22;7125;48.106;11.544;2023-10-13T03:57:01;13.00;99.90
14097;DHT22;7125;48.106;11.544;2023-10-13T03:59:36;12.90;99.90
14097;DHT22;7125;48.106;11.544;2023-10-13T04:02:05;12.90;99.90
14097;DHT22;7125;48.106;11.544;2023-10-13T04:04:38;12.90;99.90
14097;DHT22;7125;48.106;11.544;2023-10-13T04:07:14;12.90;99.90
14097;DHT22;7125;48.106;11.544;2023-10-13T04:09:58;12.80;99.90
14097;DHT22;7125;48.106;11.544;2023-10-13T04:12:43;12.80;99.90
14097;DHT22;7125;48.106;11.544;2023-10-13T04:15:43;12.80;99.90
14097;DHT22;7125;48.106;11.544;2023-10-13T04:18:29;12.80;99.90
14097;DHT22;7125;48.106;11.544;2023-10-13T04:21:12;12.80;99.90
14097;DHT22;7125;48.106;11.544;2023-10-13T04:24:06;12.70;99.90
14097;DHT22;7125;48.106;11.544;2023-10-13T04:26:49;12.70;99.90
14097;DHT22;7125;48.106;11.544;2023-10-13T04:29:44;12.60;99.90
14097;DHT22;7125;48.106;11.544;2023-10-13T04:32:18;12.60;99.90
14097;DHT22;7125;48.106;11.544;2023-10-13T04:34:57;12.60;99.90
14097;DHT22;7125;48.106;11.544;2023-10-13T04:37:34;12.50;99.90
14097;DHT22;7125;48.106;11.544;2023-10-13T04:40:15;12.50;99.90
14097;DHT22;7125;48.106;11.544;2023-10-13T04:42:44;12.50;99.90
14097;DHT22;7125;48.106;11.544;2023-10-13T04:45:20;12.40;99.90
14097;DHT22;7125;48.106;11.544;2023-10-13T04:48:05;12.40;99.90
14097;DHT22;7125;48.106;11.544;2023-10-13T04:50:59;12.30;99.90
14097;DHT22;7125;48.106;11.544;2023-10-13T04:53:48;12.30;99.90
14097;DHT22;7125;48.106;11.544;2023-10-13T04:56:27;12.30;99.90
14097;DHT22;7125;48.106;11.544;2023-10-13T04:59:11;12.20;99.90
14097;DHT22;7125;48.106;11.544;2023-10-13T05:02:01;12.20;99.90
14097;DHT22;7125;48.106;11.544;2023-10-13T05:05:09;12.20;99.90
14097;DHT22;7125;48.106;11.544;2023-10-13T05:08:10;12.20;99.90
14097;DHT22;7125;48.106;11.544;2023-10-13T05:10:54;12.20;99.90
14097;DHT22;7125;48.106;11.544;2023-10-13T05:13:39;12.30;99.90
14097;DHT22;7125;48.106;11.544;2023-10-13T05:16:24;12.30;99.90
14097;DHT22;7125;48.106;11.544;2023-10-13T05:19:08;12.40;99.90
14097;DHT22;7125;48.106;11.544;2023-10-13T05:21:53;12.50;99.90
14097;DHT22;7125;48.106;11.544;2023-10-13T05:24:38;12.50;99.90
14097;DHT22;7125;48.106;11.544;2023-10-13T05:27:23;12.60;99.90
14097;DHT22;7125;48.106;11.544;2023-10-13T05:30:08;12.60;99.90
14097;DHT22;7125;48.106;11.544;2023-10-13T05:32:52;12.70;99.90
14097;DHT22;7125;48.106;11.544;2023-10-13T05:35:37;12.70;99.90
14097;DHT22;7125;48.106;11.544;2023-10-13T05:38:21;12.80;99.90
14097;DHT22;7125;48.106;11.544;2023-10-13T05:41:07;12.90;99.90
14097;DHT22;7125;48.106;11.544;2023-10-13T05:43:52;12.80;99.90
14097;DHT22;7125;48.106;11.544;2023-10-13T05:46:48;12.80;99.90
14097;DHT22;7125;48.106;11.544;2023-10-13T05:49:31;12.90;99.90
14097;DHT22;7125;48.106;11.544;2023-10-13T05:52:15;12.90;99.90
14097;DHT22;7125;48.106;11.544;2023-10-13T05:55:02;12.90;99.90
14097;DHT22;7125;48.106;11.544;2023-10-13T05:57:48;12.90;99.90
14097;DHT22;7125;48.106;11.544;2023-10-13T06:00:38;13.00;99.90
14097;DHT22;7125;48.106;11.544;2023-10-13T06:05:57;12.90;99.90
14097;DHT22;7125;48.106;11.544;2023-10-13T06:08:48;13.00;99.90
14097;DHT22;7125;48.106;11.544;2023-10-13T06:11:33;13.00;99.90
14097;DHT22;7125;48.106;11.544;2023-10-13T06:14:19;13.10;99.90
14097;DHT22;7125;48.106;11.544;2023-10-13T06:17:04;13.10;99.90
14097;DHT22;7125;48.106;11.544;2023-10-13T06:19:50;13.20;99.90
14097;DHT22;7125;48.106;11.544;2023-10-13T06:22:34;13.30;99.90
14097;DHT22;7125;48.106;11.544;2023-10-13T06:25:19;13.30;99.90
14097;DHT22;7125;48.106;11.544;2023-10-13T06:28:04;13.40;99.90
14097;DHT22;7125;48.106;11.544;2023-10-13T06:30:59;13.40;99.90
14097;DHT22;7125;48.106;11.544;2023-10-13T06:33:27;13.50;99.80
14097;DHT22;7125;48.106;11.544;2023-10-13T06:35:57;13.50;99.70
14097;DHT22;7125;48.106;11.544;2023-10-13T06:38:24;13.60;99.60
14097;DHT22;7125;48.106;11.544;2023-10-13T06:40:57;13.60;99.40
14097;DHT22;7125;48.106;11.544;2023-10-13T06:43:26;13.70;99.20
14097;DHT22;7125;48.106;11.544;2023-10-13T06:46:15;13.70;99.20
14097;DHT22;7125;48.106;11.544;2023-10-13T06:49:02;13.80;99.30
14097;DHT22;7125;48.106;11.544;2023-10-13T06:51:29;13.80;99.30
14097;DHT22;7125;48.106;11.544;2023-10-13T06:54:04;13.90;99.30
14097;DHT22;7125;48.106;11.544;2023-10-13T06:56:36;13.90;99.30
14097;DHT22;7125;48.106;11.544;2023-10-13T06:59:05;14.00;99.40
14097;DHT22;7125;48.106;11.544;2023-10-13T07:01:34;14.10;99.40
14097;DHT22;7125;48.106;11.544;2023-10-13T07:04:06;14.20;99.30
14097;DHT22;7125;48.106;11.544;2023-10-13T07:06:40;14.30;99.50
14097;DHT22;7125;48.106;11.544;2023-10-13T07:09:11;14.30;99.40
14097;DHT22;7125;48.106;11.544;2023-10-13T07:12:04;14.40;99.20
14097;DHT22;7125;48.106;11.544;2023-10-13T07:14:36;14.50;99.30
14097;DHT22;7125;48.106;11.544;2023-10-13T07:17:06;14.50;99.10
14097;DHT22;7125;48.106;11.544;2023-10-13T07:19:34;14.60;99.10
14097;DHT22;7125;48.106;11.544;2023-10-13T07:22:17;14.60;99.00
14097;DHT22;7125;48.106;11.544;2023-10-13T07:24:46;14.70;98.90
14097;DHT22;7125;48.106;11.544;2023-10-13T07:27:15;14.80;98.90
14097;DHT22;7125;48.106;11.544;2023-10-13T07:29:49;14.80;98.70
14097;DHT22;7125;48.106;11.544;2023-10-13T07:32:24;14.90;98.80
14097;DHT22;7125;48.106;11.544;2023-10-13T07:34:53;15.00;98.70
14097;DHT22;7125;48.106;11.544;2023-10-13T07:37:22;15.00;98.60
14097;DHT22;7125;48.106;11.544;2023-10-13T07:39:54;15.10;98.50
14097;DHT22;7125;48.106;11.544;2023-10-13T07:42:24;15.20;98.40
14097;DHT22;7125;48.106;11.544;2023-10-13T07:44:58;15.30;98.40
14097;DHT22;7125;48.106;11.544;2023-10-13T07:47:31;15.30;98.10
14097;DHT22;7125;48.106;11.544;2023-10-13T07:49:59;15.40;98.10
14097;DHT22;7125;48.106;11.544;2023-10-13T07:52:26;15.60;98.20
14097;DHT22;7125;48.106;11.544;2023-10-13T07:55:03;15.60;98.00
14097;DHT22;7125;48.106;11.544;2023-10-13T07:57:41;15.70;98.10
14097;DHT22;7125;48.106;11.544;2023-10-13T08:00:20;15.80;98.10
14097;DHT22;7125;48.106;11.544;2023-10-13T08:03:06;15.90;97.90
14097;DHT22;7125;48.106;11.544;2023-10-13T08:05:52;16.00;98.00
14097;DHT22;7125;48.106;11.544;2023-10-13T08:08:24;16.10;97.90
14097;DHT22;7125;48.106;11.544;2023-10-13T08:11:01;16.20;97.60
14097;DHT22;7125;48.106;11.544;2023-10-13T08:13:34;16.30;97.60
14097;DHT22;7125;48.106;11.544;2023-10-13T08:16:04;16.40;97.60
14097;DHT22;7125;48.106;11.544;2023-10-13T08:18:36;16.50;97.70
14097;DHT22;7125;48.106;11.544;2023-10-13T08:21:07;16.60;97.20
14097;DHT22;7125;48.106;11.544;2023-10-13T08:23:42;16.70;97.20
14097;DHT22;7125;48.106;11.544;2023-10-13T08:26:27;16.80;97.10
14097;DHT22;7125;48.106;11.544;2023-10-13T08:29:04;16.90;96.90
14097;DHT22;7125;48.106;11.544;2023-10-13T08:31:45;17.00;95.40
14097;DHT22;7125;48.106;11.544;2023-10-13T08:34:33;17.20;95.20
14097;DHT22;7125;48.106;11.544;2023-10-13T08:37:06;17.30;95.60
14097;DHT22;7125;48.106;11.544;2023-10-13T08:39:45;17.40;95.30
14097;DHT22;7125;48.106;11.544;2023-10-13T08:42:45;17.50;94.70
14097;DHT22;7125;48.106;11.544;2023-10-13T08:45:37;17.60;95.10
14097;DHT22;7125;48.106;11.544;2023-10-13T08:48:26;17.70;94.30
14097;DHT22;7125;48.106;11.544;2023-10-13T08:50:59;17.80;94.30
14097;DHT22;7125;48.106;11.544;2023-10-13T08:53:46;17.90;92.80
14097;DHT22;7125;48.106;11.544;2023-10-13T08:56:18;18.10;92.70
14097;DHT22;7125;48.106;11.544;2023-10-13T08:58:58;18.20;93.80
14097;DHT22;7125;48.106;11.544;2023-10-13T09:01:33;18.30;91.00
14097;DHT22;7125;48.106;11.544;2023-10-13T09:04:12;18.50;91.80
14097;DHT22;7125;48.106;11.544;2023-10-13T09:06:53;18.60;92.10
14097;DHT22;7125;48.106;11.544;2023-10-13T09:09:48;18.70;92.30
14097;DHT22;7125;48.106;11.544;2023-10-13T09:12:37;18.80;92.10
14097;DHT22;7125;48.106;11.544;2023-10-13T09:15:07;18.90;92.70
14097;DHT22;7125;48.106;11.544;2023-10-13T09:17:48;19.00;92.30
14097;DHT22;7125;48.106;11.544;2023-10-13T09:20:27;19.00;92.10
14097;DHT22;7125;48.106;11.544;2023-10-13T09:23:09;19.10;90.00
14097;DHT22;7125;48.106;11.544;2023-10-13T09:25:39;19.30;90.20
14097;DHT22;7125;48.106;11.544;2023-10-13T09:28:20;19.50;85.20
14097;DHT22;7125;48.106;11.544;2023-10-13T09:30:53;19.80;87.50
14097;DHT22;7125;48.106;11.544;2023-10-13T09:33:23;19.90;87.40
14097;DHT22;7125;48.106;11.544;2023-10-13T09:35:55;19.90;87.80
14097;DHT22;7125;48.106;11.544;2023-10-13T09:38:27;20.00;88.30
14097;DHT22;7125;48.106;11.544;2023-10-13T09:40:54;20.10;88.50
14097;DHT22;7125;48.106;11.544;2023-10-13T09:43:23;20.10;86.80
14097;DHT22;7125;48.106;11.544;2023-10-13T09:45:53;20.20;84.10
14097;DHT22;7125;48.106;11.544;2023-10-13T09:48:37;20.40;83.90
14097;DHT22;7125;48.106;11.544;2023-10-13T09:51:12;20.50;85.80
14097;DHT22;7125;48.106;11.544;2023-10-13T09:53:47;20.50;85.50
14097;DHT22;7125;48.106;11.544;2023-10-13T09:56:25;20.60;82.80
14097;DHT22;7125;48.106;11.544;2023-10-13T09:58:58;20.60;83.50
14097;DHT22;7125;48.106;11.544;2023-10-13T10:01:27;20.60;84.20
14097;DHT22;7125;48.106;11.544;2023-10-13T10:04:07;20.60;86.50
14097;DHT22;7125;48.106;11.544;2023-10-13T10:06:35;20.60;86.60
14097;DHT22;7125;48.106;11.544;2023-10-13T10:09:12;20.60;87.60
14097;DHT22;7125;48.106;11.544;2023-10-13T10:11:55;20.70;86.20
14097;DHT22;7125;48.106;11.544;2023-10-13T10:14:45;20.80;82.00
14097;DHT22;7125;48.106;11.544;2023-10-13T10:17:18;20.90;83.70
14097;DHT22;7125;48.106;11.544;2023-10-13T10:19:48;21.00;81.10
14097;DHT22;7125;48.106;11.544;2023-10-13T10:22:25;21.00;79.70
14097;DHT22;7125;48.106;11.544;2023-10-13T10:24:58;21.10;82.10
14097;DHT22;7125;48.106;11.544;2023-10-13T10:27:28;21.20;84.80
14097;DHT22;7125;48.106;11.544;2023-10-13T10:29:57;21.20;85.30
14097;DHT22;7125;48.106;11.544;2023-10-13T10:32:35;21.30;85.10
14097;DHT22;7125;48.106;11.544;2023-10-13T10:35:04;21.30;84.00
14097;DHT22;7125;48.106;11.544;2023-10-13T10:37:40;21.40;83.50
14097;DHT22;7125;48.106;11.544;2023-10-13T10:40:14;21.50;82.80
14097;DHT22;7125;48.106;11.544;2023-10-13T10:43:04;21.50;82.60
14097;DHT22;7125;48.106;11.544;2023-10-13T10:45:35;21.60;79.10
14097;DHT22;7125;48.106;11.544;2023-10-13T10:48:11;21.70;80.20
14097;DHT22;7125;48.106;11.544;2023-10-13T10:50:44;21.80;81.60
14097;DHT22;7125;48.106;11.544;2023-10-13T10:53:11;21.90;81.00
14097;DHT22;7125;48.106;11.544;2023-10-13T10:55:39;22.00;77.90
14097;DHT22;7125;48.106;11.544;2023-10-13T10:58:06;22.10;79.00
14097;DHT22;7125;48.106;11.544;2023-10-13T11:01:04;22.20;75.70
14097;DHT22;7125;48.106;11.544;2023-10-13T11:06:12;22.40;75.50
14097;DHT22;7125;48.106;11.544;2023-10-13T11:08:45;22.50;74.00
14097;DHT22;7125;48.106;11.544;2023-10-13T11:11:29;22.60;68.30
14097;DHT22;7125;48.106;11.544;2023-10-13T11:14:01;22.70;67.80
14097;DHT22;7125;48.106;11.544;2023-10-13T11:16:46;22.80;67.50
14097;DHT22;7125;48.106;11.544;2023-10-13T11:19:17;22.90;67.70
14097;DHT22;7125;48.106;11.544;2023-10-13T11:21:52;23.00;69.90
14097;DHT22;7125;48.106;11.544;2023-10-13T11:24:19;23.10;62.60
14097;DHT22;7125;48.106;11.544;2023-10-13T11:26:49;23.20;65.10
14097;DHT22;7125;48.106;11.544;2023-10-13T11:29:17;23.30;66.10
14097;DHT22;7125;48.106;11.544;2023-10-13T11:31:48;23.30;66.90
14097;DHT22;7125;48.106;11.544;2023-10-13T11:34:24;23.30;62.90
14097;DHT22;7125;48.106;11.544;2023-10-13T11:36:55;23.40;63.70
14097;DHT22;7125;48.106;11.544;2023-10-13T11:39:24;23.40;62.00
14097;DHT22;7125;48.106;11.544;2023-10-13T11:42:00;23.50;61.60
14097;DHT22;7125;48.106;11.544;2023-10-13T11:44:27;23.50;59.40
14097;DHT22;7125;48.106;11.544;2023-10-13T11:46:59;23.60;60.80
14097;DHT22;7125;48.106;11.544;2023-10-13T11:49:58;23.70;59.50
14097;DHT22;7125;48.106;11.544;2023-10-13T11:52:25;23.80;59.70
14097;DHT22;7125;48.106;11.544;2023-10-13T11:54:55;23.90;57.90
14097;DHT22;7125;48.106;11.544;2023-10-13T11:57:23;24.00;59.20
14097;DHT22;7125;48.106;11.544;2023-10-13T11:59:50;24.00;59.20
14097;DHT22;7125;48.106;11.544;2023-10-13T12:02:21;24.00;57.90
14097;DHT22;7125;48.106;11.544;2023-10-13T12:05:06;24.10;58.60
14097;DHT22;7125;48.106;11.544;2023-10-13T12:07:42;24.10;58.20
14097;DHT22;7125;48.106;11.544;2023-10-13T12:10:14;24.20;55.70
14097;DHT22;7125;48.106;11.544;2023-10-13T12:13:06;24.30;55.40
14097;DHT22;7125;48.106;11.544;2023-10-13T12:15:36;24.30;55.70
14097;DHT22;7125;48.106;11.544;2023-10-13T12:18:15;24.30;57.20
14097;DHT22;7125;48.106;11.544;2023-10-13T12:20:42;24.30;58.50
14097;DHT22;7125;48.106;11.544;2023-10-13T12:23:12;24.30;56.10
14097;DHT22;7125;48.106;11.544;2023-10-13T12:25:43;24.30;56.80
14097;DHT22;7125;48.106;11.544;2023-10-13T12:28:27;24.30;55.40
14097;DHT22;7125;48.106;11.544;2023-10-13T12:31:04;24.50;54.80
14097;DHT22;7125;48.106;11.544;2023-10-13T12:33:33;24.50;55.00
14097;DHT22;7125;48.106;11.544;2023-10-13T12:36:06;24.60;53.90
14097;DHT22;7125;48.106;11.544;2023-10-13T12:38:35;24.70;54.30
14097;DHT22;7125;48.106;11.544;2023-10-13T12:41:38;24.70;54.00
14097;DHT22;7125;48.106;11.544;2023-10-13T12:44:24;24.80;55.20
14097;DHT22;7125;48.106;11.544;2023-10-13T12:47:09;24.90;54.50
14097;DHT22;7125;48.106;11.544;2023-10-13T12:49:54;25.00;55.10
14097;DHT22;7125;48.106;11.544;2023-10-13T12:52:33;25.00;56.20
14097;DHT22;7125;48.106;11.544;2023-10-13T12:55:00;25.00;54.80
14097;DHT22;7125;48.106;11.544;2023-10-13T12:57:40;25.10;54.10
14097;DHT22;7125;48.106;11.544;2023-10-13T13:00:12;25.20;53.30
14097;DHT22;7125;48.106;11.544;2023-10-13T13:02:51;25.30;52.90
14097;DHT22;7125;48.106;11.544;2023-10-13T13:05:21;25.40;51.70
14097;DHT22;7125;48.106;11.544;2023-10-13T13:07:54;25.50;51.90
14097;DHT22;7125;48.106;11.544;2023-10-13T13:10:21;25.60;54.30
14097;DHT22;7125;48.106;11.544;2023-10-13T13:13:02;25.70;54.70
14097;DHT22;7125;48.106;11.544;2023-10-13T13:15:31;25.70;53.00
14097;DHT22;7125;48.106;11.544;2023-10-13T13:17:58;25.70;53.10
14097;DHT22;7125;48.106;11.544;2023-10-13T13:20:37;25.80;54.50
14097;DHT22;7125;48.106;11.544;2023-10-13T13:23:10;25.90;51.50
14097;DHT22;7125;48.106;11.544;2023-10-13T13:25:38;25.90;51.30
14097;DHT22;7125;48.106;11.544;2023-10-13T13:28:09;25.90;51.30
14097;DHT22;7125;48.106;11.544;2023-10-13T13:30:39;26.00;54.30
14097;DHT22;7125;48.106;11.544;2023-10-13T13:33:07;26.10;51.10
14097;DHT22;7125;48.106;11.544;2023-10-13T13:35:39;26.10;53.70
14097;DHT22;7125;48.106;11.544;2023-10-13T13:38:09;26.20;53.50
14097;DHT22;7125;48.106;11.544;2023-10-13T13:40:48;26.20;53.60
14097;DHT22;7125;48.106;11.544;2023-10-13T13:43:19;26.10;54.90
14097;DHT22;7125;48.106;11.544;2023-10-13T13:46:04;26.10;56.00
14097;DHT22;7125;48.106;11.544;2023-10-13T13:48:35;26.10;55.60
14097;DHT22;7125;48.106;11.544;2023-10-13T13:51:05;26.00;56.20
14097;DHT22;7125;48.106;11.544;2023-10-13T13:53:39;25.90;57.00
14097;DHT22;7125;48.106;11.544;2023-10-13T13:56:10;25.90;53.40
14097;DHT22;7125;48.106;11.544;2023-10-13T13:58:42;25.90;54.80
14097;DHT22;7125;48.106;11.544;2023-10-13T14:01:10;25.90;55.30
14097;DHT22;7125;48.106;11.544;2023-10-13T14:03:41;25.80;56.40
14097;DHT22;7125;48.106;11.544;2023-10-13T14:06:17;25.80;56.50
14097;DHT22;7125;48.106;11.544;2023-10-13T14:08:47;25.80;58.20
14097;DHT22;7125;48.106;11.544;2023-10-13T14:11:17;25.70;57.90
14097;DHT22;7125;48.106;11.544;2023-10-13T14:14:04;25.60;57.80
14097;DHT22;7125;48.106;11.544;2023-10-13T14:16:39;25.50;57.50
14097;DHT22;7125;48.106;11.544;2023-10-13T14:19:10;25.50;59.50
14097;DHT22;7125;48.106;11.544;2023-10-13T14:21:37;25.40;58.30
14097;DHT22;7125;48.106;11.544;2023-10-13T14:24:05;25.30;56.60
14097;DHT22;7125;48.106;11.544;2023-10-13T14:26:40;25.30;55.10
14097;DHT22;7125;48.106;11.544;2023-10-13T14:29:10;25.30;54.30
14097;DHT22;7125;48.106;11.544;2023-10-13T14:31:41;25.30;56.00
14097;DHT22;7125;48.106;11.544;2023-10-13T14:34:09;25.30;58.70
14097;DHT22;7125;48.106;11.544;2023-10-13T14:36:36;25.10;60.50
14097;DHT22;7125;48.106;11.544;2023-10-13T14:39:05;24.90;62.30
14097;DHT22;7125;48.106;11.544;2023-10-13T14:41:34;24.70;61.40
14097;DHT22;7125;48.106;11.544;2023-10-13T14:44:02;24.50;62.90
14097;DHT22;7125;48.106;11.544;2023-10-13T14:46:34;24.40;64.40
14097;DHT22;7125;48.106;11.544;2023-10-13T14:49:06;24.20;65.80
14097;DHT22;7125;48.106;11.544;2023-10-13T14:51:33;23.90;62.00
14097;DHT22;7125;48.106;11.544;2023-10-13T14:54:05;23.80;64.00
14097;DHT22;7125;48.106;11.544;2023-10-13T14:56:32;23.60;67.80
14097;DHT22;7125;48.106;11.544;2023-10-13T14:58:59;23.50;69.00
14097;DHT22;7125;48.106;11.544;2023-10-13T15:01:26;23.20;70.20
14097;DHT22;7125;48.106;11.544;2023-10-13T15:03:53;23.00;72.20
14097;DHT22;7125;48.106;11.544;2023-10-13T15:06:24;22.80;73.20
14097;DHT22;7125;48.106;11.544;2023-10-13T15:08:55;22.70;73.50
14097;DHT22;7125;48.106;11.544;2023-10-13T15:11:24;22.50;73.80
14097;DHT22;7125;48.106;11.544;2023-10-13T15:13:53;22.30;73.70
14097;DHT22;7125;48.106;11.544;2023-10-13T15:16:22;22.10;73.40
14097;DHT22;7125;48.106;11.544;2023-10-13T15:18:51;22.00;75.00
14097;DHT22;7125;48.106;11.544;2023-10-13T15:21:23;21.80;75.40
14097;DHT22;7125;48.106;11.544;2023-10-13T15:23:53;21.70;76.00
14097;DHT22;7125;48.106;11.544;2023-10-13T15:26:24;21.50;76.10
14097;DHT22;7125;48.106;11.544;2023-10-13T15:28:51;21.40;77.20
14097;DHT22;7125;48.106;11.544;2023-10-13T15:31:21;21.20;78.60
14097;DHT22;7125;48.106;11.544;2023-10-13T15:34:04;21.10;79.80
14097;DHT22;7125;48.106;11.544;2023-10-13T15:36:40;21.00;80.80
14097;DHT22;7125;48.106;11.544;2023-10-13T15:39:08;20.90;81.90
14097;DHT22;7125;48.106;11.544;2023-10-13T15:41:36;20.70;82.10
14097;DHT22;7125;48.106;11.544;2023-10-13T15:44:05;20.60;82.30
14097;DHT22;7125;48.106;11.544;2023-10-13T15:46:35;20.40;82.40
14097;DHT22;7125;48.106;11.544;2023-10-13T15:49:03;20.30;83.00
14097;DHT22;7125;48.106;11.544;2023-10-13T15:51:32;20.20;83.50
14097;DHT22;7125;48.106;11.544;2023-10-13T15:54:01;20.00;84.00
14097;DHT22;7125;48.106;11.544;2023-10-13T15:56:28;19.90;84.70
14097;DHT22;7125;48.106;11.544;2023-10-13T15:58:58;19.80;85.20
14097;DHT22;7125;48.106;11.544;2023-10-13T16:01:27;19.70;85.80
14097;DHT22;7125;48.106;11.544;2023-10-13T16:03:54;19.60;86.50
14097;DHT22;7125;48.106;11.544;2023-10-13T16:06:21;19.50;87.30
14097;DHT22;7125;48.106;11.544;2023-10-13T16:08:51;19.40;87.70
14097;DHT22;7125;48.106;11.544;2023-10-13T16:11:20;19.30;88.00
14097;DHT22;7125;48.106;11.544;2023-10-13T16:13:48;19.20;88.40
14097;DHT22;7125;48.106;11.544;2023-10-13T16:16:17;19.10;88.50
14097;DHT22;7125;48.106;11.544;2023-10-13T16:18:45;19.00;88.70
14097;DHT22;7125;48.106;11.544;2023-10-13T16:21:13;18.90;89.30